South Beloit, Illinois
Current Conditions -  °F | °C
As of 9:15 PM on Thursday 18 Dec 2014 (Local Time) from KJVL Reporting Station
Overcast Overcast  
Wind Chill: 28°   Ceiling: 1500
Heat Index: 28°   Visibility: 10mi
Dew Point: 27°   Wind: 0mph
Humidity: 93%   Direction: NA
Pressure: 30.25"   Gusts: NA
Location:  42.49°N, 89.04°W
Report Text: KJVL 190315Z AUTO 00000KT 10SM OVC015 M02/M03 A3025 RMK AO2
Loading
Personal Weather Stations






























Interactive Weather Map New forecast layout! Learn more

10-Day Weather Forecast

Advertisements
Track Severe Weather on mobile